Terminal Aerodrome Forecast
Issued by NWS Des Moines, IA

Home | Current Version | Previous Version | Text Only | Print | Product List | Glossary On
Versions: 1 2 3 4 5 6 7 8 9 10 11 12 13 14 15 16 17 18 19 20 21 22 23 24 25 26 27
000
FTUS43 KDMX 030843 AAA
TAFDSM
TAF AMD
KDSM 030843Z 0309/0406 19012KT P6SM SCT030 BKN090
      TEMPO 0310/0313 -SHRA SCT020 BKN035
     FM031900 20017G25KT P6SM SCT040 BKN150
     FM032300 20013KT P6SM BKN100
     FM040400 24009KT 2SM TSRA BKN040CB=

USA.gov is the U.S. government's official web portal to all federal, state and local government web resources and services.